sensor_id;sensor_type;location;lat;lon;timestamp;P1;durP1;ratioP1;P2;durP2;ratioP2
61869;SDS011;47810;42.264;23.826;2024-01-30T00:03:38;1.73;;;1.52;;
61869;SDS011;47810;42.264;23.826;2024-01-30T00:06:21;2.65;;;1.92;;
61869;SDS011;47810;42.264;23.826;2024-01-30T00:24:13;2.47;;;2.38;;
61869;SDS011;47810;42.264;23.826;2024-01-30T00:26:49;2.20;;;2.10;;
61869;SDS011;47810;42.264;23.826;2024-01-30T00:29:15;2.53;;;2.42;;
61869;SDS011;47810;42.264;23.826;2024-01-30T00:31:46;1.33;;;1.27;;
61869;SDS011;47810;42.264;23.826;2024-01-30T00:37:16;2.10;;;1.88;;
61869;SDS011;47810;42.264;23.826;2024-01-30T00:39:52;4.30;;;2.70;;
61869;SDS011;47810;42.264;23.826;2024-01-30T00:42:27;1.88;;;1.77;;
61869;SDS011;47810;42.264;23.826;2024-01-30T00:45:12;16.80;;;3.10;;
61869;SDS011;47810;42.264;23.826;2024-01-30T00:47:44;3.42;;;1.50;;
61869;SDS011;47810;42.264;23.826;2024-01-30T00:50:17;1.92;;;1.83;;
61869;SDS011;47810;42.264;23.826;2024-01-30T00:58:26;1.75;;;1.65;;
61869;SDS011;47810;42.264;23.826;2024-01-30T01:00:54;1.80;;;1.70;;
61869;SDS011;47810;42.264;23.826;2024-01-30T01:03:21;2.15;;;2.05;;
61869;SDS011;47810;42.264;23.826;2024-01-30T01:05:49;2.92;;;2.28;;
61869;SDS011;47810;42.264;23.826;2024-01-30T01:10:45;1.25;;;1.15;;
61869;SDS011;47810;42.264;23.826;2024-01-30T01:13:20;1.35;;;1.30;;
61869;SDS011;47810;42.264;23.826;2024-01-30T01:21:31;2.60;;;2.22;;
61869;SDS011;47810;42.264;23.826;2024-01-30T01:23:58;3.55;;;2.35;;
61869;SDS011;47810;42.264;23.826;2024-01-30T01:26:24;4.10;;;3.40;;
61869;SDS011;47810;42.264;23.826;2024-01-30T01:33:55;2.88;;;2.47;;
61869;SDS011;47810;42.264;23.826;2024-01-30T01:41:44;4.45;;;3.70;;
61869;SDS011;47810;42.264;23.826;2024-01-30T01:44:17;8.27;;;2.42;;
61869;SDS011;47810;42.264;23.826;2024-01-30T01:46:44;2.42;;;2.22;;
61869;SDS011;47810;42.264;23.826;2024-01-30T01:49:11;6.20;;;2.55;;
61869;SDS011;47810;42.264;23.826;2024-01-30T01:51:45;4.03;;;2.28;;
61869;SDS011;47810;42.264;23.826;2024-01-30T01:54:30;14.00;;;5.10;;
61869;SDS011;47810;42.264;23.826;2024-01-30T01:59:25;13.80;;;4.50;;
61869;SDS011;47810;42.264;23.826;2024-01-30T02:01:52;2.13;;;2.03;;
61869;SDS011;47810;42.264;23.826;2024-01-30T02:06:53;2.17;;;1.98;;
61869;SDS011;47810;42.264;23.826;2024-01-30T02:09:27;1.67;;;1.45;;
61869;SDS011;47810;42.264;23.826;2024-01-30T02:14:31;1.52;;;1.42;;
61869;SDS011;47810;42.264;23.826;2024-01-30T02:28:36;2.63;;;2.42;;
61869;SDS011;47810;42.264;23.826;2024-01-30T02:31:03;1.23;;;1.10;;
61869;SDS011;47810;42.264;23.826;2024-01-30T02:33:33;2.42;;;2.22;;
61869;SDS011;47810;42.264;23.826;2024-01-30T02:41:43;2.33;;;2.15;;
61869;SDS011;47810;42.264;23.826;2024-01-30T02:44:09;1.98;;;1.88;;
61869;SDS011;47810;42.264;23.826;2024-01-30T02:46:40;1.58;;;1.50;;
61869;SDS011;47810;42.264;23.826;2024-01-30T02:49:14;1.55;;;1.45;;
61869;SDS011;47810;42.264;23.826;2024-01-30T02:57:26;1.23;;;1.23;;
61869;SDS011;47810;42.264;23.826;2024-01-30T02:59:58;1.73;;;1.60;;
61869;SDS011;47810;42.264;23.826;2024-01-30T03:08:13;2.17;;;1.90;;
61869;SDS011;47810;42.264;23.826;2024-01-30T03:13:08;1.73;;;1.63;;
61869;SDS011;47810;42.264;23.826;2024-01-30T03:15:40;3.25;;;1.25;;
61869;SDS011;47810;42.264;23.826;2024-01-30T03:18:06;2.95;;;2.35;;
61869;SDS011;47810;42.264;23.826;2024-01-30T03:20:50;1.75;;;1.65;;
61869;SDS011;47810;42.264;23.826;2024-01-30T03:25:57;1.75;;;1.35;;
61869;SDS011;47810;42.264;23.826;2024-01-30T03:28:31;0.75;;;0.75;;
61869;SDS011;47810;42.264;23.826;2024-01-30T03:30:57;1.92;;;1.83;;
61869;SDS011;47810;42.264;23.826;2024-01-30T03:33:33;0.88;;;0.88;;
61869;SDS011;47810;42.264;23.826;2024-01-30T03:36:07;1.55;;;1.52;;
61869;SDS011;47810;42.264;23.826;2024-01-30T03:44:10;3.08;;;2.97;;
61869;SDS011;47810;42.264;23.826;2024-01-30T03:46:51;2.60;;;2.10;;
61869;SDS011;47810;42.264;23.826;2024-01-30T03:51:53;7.57;;;3.72;;
61869;SDS011;47810;42.264;23.826;2024-01-30T03:56:56;9.40;;;4.38;;
61869;SDS011;47810;42.264;23.826;2024-01-30T03:59:24;8.25;;;5.68;;
61869;SDS011;47810;42.264;23.826;2024-01-30T04:01:52;16.45;;;9.82;;
61869;SDS011;47810;42.264;23.826;2024-01-30T04:04:29;6.68;;;5.38;;
61869;SDS011;47810;42.264;23.826;2024-01-30T04:09:42;6.95;;;3.63;;
61869;SDS011;47810;42.264;23.826;2024-01-30T04:12:17;7.63;;;5.13;;
61869;SDS011;47810;42.264;23.826;2024-01-30T04:14:51;6.28;;;4.43;;
61869;SDS011;47810;42.264;23.826;2024-01-30T04:20:14;4.55;;;4.13;;
61869;SDS011;47810;42.264;23.826;2024-01-30T04:25:18;4.28;;;3.08;;
61869;SDS011;47810;42.264;23.826;2024-01-30T04:27:45;9.63;;;4.25;;
61869;SDS011;47810;42.264;23.826;2024-01-30T04:32:43;8.65;;;6.18;;
61869;SDS011;47810;42.264;23.826;2024-01-30T04:35:11;10.20;;;7.18;;
61869;SDS011;47810;42.264;23.826;2024-01-30T04:37:45;7.35;;;5.30;;
61869;SDS011;47810;42.264;23.826;2024-01-30T04:40:10;2.83;;;2.63;;
61869;SDS011;47810;42.264;23.826;2024-01-30T04:45:18;9.25;;;4.05;;
61869;SDS011;47810;42.264;23.826;2024-01-30T04:47:51;22.73;;;17.83;;
61869;SDS011;47810;42.264;23.826;2024-01-30T04:50:24;9.63;;;5.53;;
61869;SDS011;47810;42.264;23.826;2024-01-30T04:52:53;8.60;;;7.03;;
61869;SDS011;47810;42.264;23.826;2024-01-30T04:55:20;5.50;;;3.67;;
61869;SDS011;47810;42.264;23.826;2024-01-30T04:57:46;3.70;;;3.28;;
61869;SDS011;47810;42.264;23.826;2024-01-30T05:00:12;4.82;;;3.33;;
61869;SDS011;47810;42.264;23.826;2024-01-30T05:02:39;7.38;;;4.72;;
61869;SDS011;47810;42.264;23.826;2024-01-30T05:07:37;2.90;;;2.70;;
61869;SDS011;47810;42.264;23.826;2024-01-30T05:10:06;7.18;;;4.50;;
61869;SDS011;47810;42.264;23.826;2024-01-30T05:12:40;9.40;;;4.38;;
61869;SDS011;47810;42.264;23.826;2024-01-30T05:15:08;6.47;;;2.55;;
61869;SDS011;47810;42.264;23.826;2024-01-30T05:17:34;6.22;;;3.88;;
61869;SDS011;47810;42.264;23.826;2024-01-30T05:20:01;5.45;;;2.47;;
61869;SDS011;47810;42.264;23.826;2024-01-30T05:22:28;4.18;;;3.20;;
61869;SDS011;47810;42.264;23.826;2024-01-30T05:24:54;6.45;;;3.50;;
61869;SDS011;47810;42.264;23.826;2024-01-30T05:27:20;3.55;;;3.22;;
61869;SDS011;47810;42.264;23.826;2024-01-30T05:29:47;4.68;;;4.20;;
61869;SDS011;47810;42.264;23.826;2024-01-30T05:32:14;9.68;;;4.97;;
61869;SDS011;47810;42.264;23.826;2024-01-30T05:34:40;4.13;;;3.83;;
61869;SDS011;47810;42.264;23.826;2024-01-30T05:37:09;3.35;;;3.08;;
61869;SDS011;47810;42.264;23.826;2024-01-30T05:39:46;3.72;;;3.15;;
61869;SDS011;47810;42.264;23.826;2024-01-30T05:42:20;4.00;;;2.63;;
61869;SDS011;47810;42.264;23.826;2024-01-30T05:44:47;3.28;;;3.08;;
61869;SDS011;47810;42.264;23.826;2024-01-30T05:47:19;4.65;;;3.50;;
61869;SDS011;47810;42.264;23.826;2024-01-30T05:49:45;8.82;;;7.43;;
61869;SDS011;47810;42.264;23.826;2024-01-30T05:52:11;16.05;;;8.15;;
61869;SDS011;47810;42.264;23.826;2024-01-30T05:57:26;15.05;;;7.80;;
61869;SDS011;47810;42.264;23.826;2024-01-30T05:59:55;14.85;;;6.75;;
61869;SDS011;47810;42.264;23.826;2024-01-30T06:02:23;2.30;;;2.10;;
61869;SDS011;47810;42.264;23.826;2024-01-30T06:04:56;4.70;;;2.80;;
61869;SDS011;47810;42.264;23.826;2024-01-30T06:07:23;1.52;;;1.50;;
61869;SDS011;47810;42.264;23.826;2024-01-30T06:15:23;2.03;;;1.92;;
61869;SDS011;47810;42.264;23.826;2024-01-30T06:17:54;7.53;;;2.85;;
61869;SDS011;47810;42.264;23.826;2024-01-30T06:23:02;2.97;;;2.78;;
61869;SDS011;47810;42.264;23.826;2024-01-30T06:28:23;15.63;;;8.23;;
61869;SDS011;47810;42.264;23.826;2024-01-30T06:30:51;9.48;;;5.18;;
61869;SDS011;47810;42.264;23.826;2024-01-30T06:35:55;11.82;;;5.18;;
61869;SDS011;47810;42.264;23.826;2024-01-30T06:38:21;11.70;;;6.95;;
61869;SDS011;47810;42.264;23.826;2024-01-30T06:40:51;16.40;;;10.45;;
61869;SDS011;47810;42.264;23.826;2024-01-30T06:45:49;6.82;;;6.22;;
61869;SDS011;47810;42.264;23.826;2024-01-30T06:48:22;5.20;;;4.72;;
61869;SDS011;47810;42.264;23.826;2024-01-30T07:00:47;8.93;;;8.10;;
61869;SDS011;47810;42.264;23.826;2024-01-30T07:03:14;6.07;;;5.50;;
61869;SDS011;47810;42.264;23.826;2024-01-30T07:05:40;11.35;;;8.05;;
61869;SDS011;47810;42.264;23.826;2024-01-30T07:10:53;13.95;;;10.38;;
61869;SDS011;47810;42.264;23.826;2024-01-30T07:13:20;13.27;;;7.95;;
61869;SDS011;47810;42.264;23.826;2024-01-30T07:18:29;10.00;;;8.80;;
61869;SDS011;47810;42.264;23.826;2024-01-30T07:23:24;9.07;;;6.25;;
61869;SDS011;47810;42.264;23.826;2024-01-30T07:26:05;11.77;;;7.05;;
61869;SDS011;47810;42.264;23.826;2024-01-30T07:28:34;8.20;;;6.03;;
61869;SDS011;47810;42.264;23.826;2024-01-30T07:31:05;7.93;;;7.05;;
61869;SDS011;47810;42.264;23.826;2024-01-30T07:33:46;4.25;;;3.88;;
61869;SDS011;47810;42.264;23.826;2024-01-30T07:36:13;9.93;;;8.48;;
61869;SDS011;47810;42.264;23.826;2024-01-30T07:41:09;13.25;;;10.60;;
61869;SDS011;47810;42.264;23.826;2024-01-30T07:43:35;11.32;;;6.35;;
61869;SDS011;47810;42.264;23.826;2024-01-30T07:46:01;9.20;;;7.50;;
61869;SDS011;47810;42.264;23.826;2024-01-30T07:48:38;5.82;;;5.10;;
61869;SDS011;47810;42.264;23.826;2024-01-30T07:51:04;14.90;;;13.55;;
61869;SDS011;47810;42.264;23.826;2024-01-30T07:53:30;12.75;;;10.00;;
61869;SDS011;47810;42.264;23.826;2024-01-30T07:56:04;8.52;;;6.40;;
61869;SDS011;47810;42.264;23.826;2024-01-30T07:58:32;7.45;;;6.72;;
61869;SDS011;47810;42.264;23.826;2024-01-30T08:00:58;4.90;;;4.53;;
61869;SDS011;47810;42.264;23.826;2024-01-30T08:03:26;7.28;;;5.07;;
61869;SDS011;47810;42.264;23.826;2024-01-30T08:08:44;5.30;;;3.50;;
61869;SDS011;47810;42.264;23.826;2024-01-30T08:13:43;2.22;;;2.13;;
61869;SDS011;47810;42.264;23.826;2024-01-30T08:16:19;4.20;;;3.25;;
61869;SDS011;47810;42.264;23.826;2024-01-30T08:18:46;4.82;;;3.63;;
61869;SDS011;47810;42.264;23.826;2024-01-30T08:29:55;4.25;;;4.05;;
61869;SDS011;47810;42.264;23.826;2024-01-30T08:32:39;3.45;;;3.05;;
61869;SDS011;47810;42.264;23.826;2024-01-30T08:35:10;3.53;;;2.60;;
61869;SDS011;47810;42.264;23.826;2024-01-30T08:37:50;1.00;;;0.90;;
61869;SDS011;47810;42.264;23.826;2024-01-30T08:40:34;2.22;;;0.90;;
61869;SDS011;47810;42.264;23.826;2024-01-30T08:43:01;3.88;;;3.63;;
61869;SDS011;47810;42.264;23.826;2024-01-30T08:45:30;7.15;;;5.03;;
61869;SDS011;47810;42.264;23.826;2024-01-30T08:47:56;15.40;;;7.38;;
61869;SDS011;47810;42.264;23.826;2024-01-30T08:50:22;4.10;;;3.25;;
61869;SDS011;47810;42.264;23.826;2024-01-30T08:58:41;4.90;;;2.92;;
61869;SDS011;47810;42.264;23.826;2024-01-30T09:03:33;2.28;;;1.92;;
61869;SDS011;47810;42.264;23.826;2024-01-30T09:06:14;8.45;;;6.55;;
61869;SDS011;47810;42.264;23.826;2024-01-30T09:08:45;3.65;;;3.00;;
61869;SDS011;47810;42.264;23.826;2024-01-30T09:11:18;4.45;;;1.70;;
61869;SDS011;47810;42.264;23.826;2024-01-30T09:13:51;2.90;;;2.70;;
61869;SDS011;47810;42.264;23.826;2024-01-30T09:19:07;1.50;;;1.40;;
61869;SDS011;47810;42.264;23.826;2024-01-30T09:27:06;2.00;;;1.70;;
61869;SDS011;47810;42.264;23.826;2024-01-30T09:32:29;1.15;;;1.08;;
61869;SDS011;47810;42.264;23.826;2024-01-30T09:40:57;2.08;;;1.98;;
61869;SDS011;47810;42.264;23.826;2024-01-30T09:59:36;4.15;;;3.53;;
61869;SDS011;47810;42.264;23.826;2024-01-30T10:06:09;1.23;;;1.20;;
61869;SDS011;47810;42.264;23.826;2024-01-30T10:11:20;4.32;;;2.25;;
61869;SDS011;47810;42.264;23.826;2024-01-30T10:13:54;1.38;;;1.27;;
61869;SDS011;47810;42.264;23.826;2024-01-30T10:19:14;3.67;;;1.85;;
61869;SDS011;47810;42.264;23.826;2024-01-30T10:27:46;0.75;;;0.60;;
61869;SDS011;47810;42.264;23.826;2024-01-30T10:38:59;2.40;;;2.20;;
61869;SDS011;47810;42.264;23.826;2024-01-30T10:41:27;1.30;;;0.93;;
61869;SDS011;47810;42.264;23.826;2024-01-30T10:58:17;5.00;;;3.53;;
61869;SDS011;47810;42.264;23.826;2024-01-30T11:00:44;1.70;;;1.60;;
61869;SDS011;47810;42.264;23.826;2024-01-30T11:07:31;2.53;;;2.38;;
61869;SDS011;47810;42.264;23.826;2024-01-30T11:13:51;2.13;;;1.92;;
61869;SDS011;47810;42.264;23.826;2024-01-30T11:27:38;3.30;;;2.85;;
61869;SDS011;47810;42.264;23.826;2024-01-30T11:37:09;1.23;;;1.05;;
61869;SDS011;47810;42.264;23.826;2024-01-30T11:39:39;2.75;;;1.20;;
61869;SDS011;47810;42.264;23.826;2024-01-30T11:54:43;1.33;;;1.05;;
61869;SDS011;47810;42.264;23.826;2024-01-30T12:07:20;6.80;;;2.28;;
61869;SDS011;47810;42.264;23.826;2024-01-30T12:09:56;2.22;;;2.08;;
61869;SDS011;47810;42.264;23.826;2024-01-30T12:22:07;1.13;;;1.02;;
61869;SDS011;47810;42.264;23.826;2024-01-30T12:30:27;2.30;;;2.03;;
61869;SDS011;47810;42.264;23.826;2024-01-30T12:39:35;2.25;;;1.50;;
61869;SDS011;47810;42.264;23.826;2024-01-30T12:44:52;2.85;;;1.55;;
61869;SDS011;47810;42.264;23.826;2024-01-30T12:47:22;3.30;;;2.15;;
61869;SDS011;47810;42.264;23.826;2024-01-30T12:50:00;2.60;;;2.13;;
61869;SDS011;47810;42.264;23.826;2024-01-30T12:52:26;4.43;;;2.78;;
61869;SDS011;47810;42.264;23.826;2024-01-30T12:54:53;3.67;;;2.85;;
61869;SDS011;47810;42.264;23.826;2024-01-30T13:00:05;4.25;;;3.42;;
61869;SDS011;47810;42.264;23.826;2024-01-30T13:02:49;4.60;;;2.60;;
61869;SDS011;47810;42.264;23.826;2024-01-30T13:05:20;4.18;;;3.08;;
61869;SDS011;47810;42.264;23.826;2024-01-30T13:19:26;8.88;;;5.55;;
61869;SDS011;47810;42.264;23.826;2024-01-30T13:27:24;14.75;;;9.18;;
61869;SDS011;47810;42.264;23.826;2024-01-30T13:39:42;8.95;;;4.57;;
61869;SDS011;47810;42.264;23.826;2024-01-30T13:50:22;4.40;;;2.88;;
61869;SDS011;47810;42.264;23.826;2024-01-30T14:01:34;7.50;;;3.85;;
61869;SDS011;47810;42.264;23.826;2024-01-30T14:07:36;8.95;;;5.97;;
61869;SDS011;47810;42.264;23.826;2024-01-30T14:10:05;8.07;;;5.18;;
61869;SDS011;47810;42.264;23.826;2024-01-30T14:12:34;5.15;;;3.35;;
61869;SDS011;47810;42.264;23.826;2024-01-30T14:17:29;3.60;;;3.30;;
61869;SDS011;47810;42.264;23.826;2024-01-30T14:30:45;4.60;;;3.10;;
61869;SDS011;47810;42.264;23.826;2024-01-30T14:38:41;6.70;;;3.75;;
61869;SDS011;47810;42.264;23.826;2024-01-30T14:41:13;9.00;;;4.20;;
61869;SDS011;47810;42.264;23.826;2024-01-30T14:56:57;4.93;;;4.28;;
61869;SDS011;47810;42.264;23.826;2024-01-30T14:59:34;4.20;;;3.83;;
61869;SDS011;47810;42.264;23.826;2024-01-30T15:02:00;4.95;;;4.38;;
61869;SDS011;47810;42.264;23.826;2024-01-30T15:07:04;14.30;;;9.45;;
61869;SDS011;47810;42.264;23.826;2024-01-30T15:09:39;10.30;;;6.90;;
61869;SDS011;47810;42.264;23.826;2024-01-30T15:17:19;14.15;;;7.78;;
61869;SDS011;47810;42.264;23.826;2024-01-30T15:22:18;10.30;;;6.03;;
61869;SDS011;47810;42.264;23.826;2024-01-30T15:24:53;14.07;;;7.60;;
61869;SDS011;47810;42.264;23.826;2024-01-30T15:27:19;14.52;;;8.68;;
61869;SDS011;47810;42.264;23.826;2024-01-30T15:29:45;15.98;;;8.45;;
61869;SDS011;47810;42.264;23.826;2024-01-30T15:32:12;15.13;;;8.20;;
61869;SDS011;47810;42.264;23.826;2024-01-30T15:34:46;6.45;;;5.18;;
61869;SDS011;47810;42.264;23.826;2024-01-30T15:37:12;10.93;;;5.35;;
61869;SDS011;47810;42.264;23.826;2024-01-30T15:39:38;4.57;;;4.15;;
61869;SDS011;47810;42.264;23.826;2024-01-30T15:42:11;7.63;;;4.45;;
61869;SDS011;47810;42.264;23.826;2024-01-30T15:45:02;22.80;;;5.65;;
61869;SDS011;47810;42.264;23.826;2024-01-30T15:47:28;7.13;;;6.38;;
61869;SDS011;47810;42.264;23.826;2024-01-30T15:50:31;11.55;;;6.30;;
61869;SDS011;47810;42.264;23.826;2024-01-30T15:53:01;15.73;;;9.73;;
61869;SDS011;47810;42.264;23.826;2024-01-30T15:55:26;7.18;;;6.50;;
61869;SDS011;47810;42.264;23.826;2024-01-30T15:57:55;14.85;;;10.82;;
61869;SDS011;47810;42.264;23.826;2024-01-30T16:00:22;8.85;;;7.53;;
61869;SDS011;47810;42.264;23.826;2024-01-30T16:02:49;26.65;;;12.20;;
61869;SDS011;47810;42.264;23.826;2024-01-30T16:05:17;12.75;;;8.15;;
61869;SDS011;47810;42.264;23.826;2024-01-30T16:07:46;10.32;;;4.70;;
61869;SDS011;47810;42.264;23.826;2024-01-30T16:10:12;11.10;;;7.00;;
61869;SDS011;47810;42.264;23.826;2024-01-30T16:12:45;17.02;;;11.07;;
61869;SDS011;47810;42.264;23.826;2024-01-30T16:15:14;6.10;;;4.85;;
61869;SDS011;47810;42.264;23.826;2024-01-30T16:17:40;10.98;;;7.85;;
61869;SDS011;47810;42.264;23.826;2024-01-30T16:20:08;20.25;;;17.02;;
61869;SDS011;47810;42.264;23.826;2024-01-30T16:22:34;22.95;;;15.32;;
61869;SDS011;47810;42.264;23.826;2024-01-30T16:25:03;17.75;;;14.50;;
61869;SDS011;47810;42.264;23.826;2024-01-30T16:27:32;10.10;;;5.45;;
61869;SDS011;47810;42.264;23.826;2024-01-30T16:29:59;12.02;;;7.43;;
61869;SDS011;47810;42.264;23.826;2024-01-30T16:32:33;13.23;;;8.55;;
61869;SDS011;47810;42.264;23.826;2024-01-30T16:35:00;14.93;;;9.32;;
61869;SDS011;47810;42.264;23.826;2024-01-30T16:37:25;19.45;;;11.60;;
61869;SDS011;47810;42.264;23.826;2024-01-30T16:39:54;8.55;;;7.47;;
61869;SDS011;47810;42.264;23.826;2024-01-30T16:42:20;10.80;;;7.53;;
61869;SDS011;47810;42.264;23.826;2024-01-30T16:44:46;4.63;;;4.22;;
61869;SDS011;47810;42.264;23.826;2024-01-30T16:47:15;4.78;;;4.32;;
61869;SDS011;47810;42.264;23.826;2024-01-30T16:49:44;10.52;;;7.50;;
61869;SDS011;47810;42.264;23.826;2024-01-30T16:52:21;10.40;;;6.78;;
61869;SDS011;47810;42.264;23.826;2024-01-30T16:54:47;13.55;;;7.40;;
61869;SDS011;47810;42.264;23.826;2024-01-30T16:57:14;13.70;;;8.90;;
61869;SDS011;47810;42.264;23.826;2024-01-30T16:59:40;7.18;;;6.38;;
61869;SDS011;47810;42.264;23.826;2024-01-30T17:02:10;7.68;;;5.78;;
61869;SDS011;47810;42.264;23.826;2024-01-30T17:04:37;5.18;;;4.35;;
61869;SDS011;47810;42.264;23.826;2024-01-30T17:07:04;4.18;;;3.47;;
61869;SDS011;47810;42.264;23.826;2024-01-30T17:09:31;2.97;;;2.78;;
61869;SDS011;47810;42.264;23.826;2024-01-30T17:11:58;4.05;;;2.70;;
61869;SDS011;47810;42.264;23.826;2024-01-30T17:14:25;4.65;;;3.30;;
61869;SDS011;47810;42.264;23.826;2024-01-30T17:16:51;3.42;;;2.50;;
61869;SDS011;47810;42.264;23.826;2024-01-30T17:19:18;4.25;;;3.85;;
61869;SDS011;47810;42.264;23.826;2024-01-30T17:21:44;10.95;;;4.50;;
61869;SDS011;47810;42.264;23.826;2024-01-30T17:24:11;7.60;;;5.07;;
61869;SDS011;47810;42.264;23.826;2024-01-30T17:26:41;2.20;;;2.00;;
61869;SDS011;47810;42.264;23.826;2024-01-30T17:29:09;2.08;;;1.92;;
61869;SDS011;47810;42.264;23.826;2024-01-30T17:31:36;2.17;;;2.08;;
61869;SDS011;47810;42.264;23.826;2024-01-30T17:34:02;3.05;;;2.78;;
61869;SDS011;47810;42.264;23.826;2024-01-30T17:36:28;2.60;;;2.47;;
61869;SDS011;47810;42.264;23.826;2024-01-30T17:38:55;4.57;;;3.83;;
61869;SDS011;47810;42.264;23.826;2024-01-30T17:41:21;9.48;;;3.13;;
61869;SDS011;47810;42.264;23.826;2024-01-30T17:43:47;1.92;;;1.83;;
61869;SDS011;47810;42.264;23.826;2024-01-30T17:46:13;5.82;;;2.78;;
61869;SDS011;47810;42.264;23.826;2024-01-30T17:48:40;2.38;;;2.28;;
61869;SDS011;47810;42.264;23.826;2024-01-30T17:51:05;2.40;;;2.20;;
61869;SDS011;47810;42.264;23.826;2024-01-30T17:53:31;8.88;;;4.32;;
61869;SDS011;47810;42.264;23.826;2024-01-30T17:55:58;5.22;;;4.15;;
61869;SDS011;47810;42.264;23.826;2024-01-30T17:58:31;4.20;;;3.50;;
61869;SDS011;47810;42.264;23.826;2024-01-30T18:00:57;9.60;;;5.55;;
61869;SDS011;47810;42.264;23.826;2024-01-30T18:03:24;3.83;;;3.58;;
61869;SDS011;47810;42.264;23.826;2024-01-30T18:05:50;5.32;;;4.65;;
61869;SDS011;47810;42.264;23.826;2024-01-30T18:08:18;8.45;;;5.80;;
61869;SDS011;47810;42.264;23.826;2024-01-30T18:10:44;4.70;;;2.47;;
61869;SDS011;47810;42.264;23.826;2024-01-30T18:13:11;1.55;;;1.45;;
61869;SDS011;47810;42.264;23.826;2024-01-30T18:15:38;8.00;;;5.18;;
61869;SDS011;47810;42.264;23.826;2024-01-30T18:18:04;2.97;;;1.85;;
61869;SDS011;47810;42.264;23.826;2024-01-30T18:20:31;3.65;;;3.45;;
61869;SDS011;47810;42.264;23.826;2024-01-30T18:22:57;3.80;;;3.50;;
61869;SDS011;47810;42.264;23.826;2024-01-30T18:25:23;6.90;;;4.78;;
61869;SDS011;47810;42.264;23.826;2024-01-30T18:27:49;6.63;;;6.03;;
61869;SDS011;47810;42.264;23.826;2024-01-30T18:30:16;5.50;;;5.00;;
61869;SDS011;47810;42.264;23.826;2024-01-30T18:32:41;8.77;;;6.20;;
61869;SDS011;47810;42.264;23.826;2024-01-30T18:35:07;9.48;;;5.30;;
61869;SDS011;47810;42.264;23.826;2024-01-30T18:37:33;4.28;;;3.95;;
61869;SDS011;47810;42.264;23.826;2024-01-30T18:40:02;4.88;;;4.38;;
61869;SDS011;47810;42.264;23.826;2024-01-30T18:42:30;5.72;;;4.40;;
61869;SDS011;47810;42.264;23.826;2024-01-30T18:44:56;3.53;;;3.33;;
61869;SDS011;47810;42.264;23.826;2024-01-30T18:47:23;4.80;;;4.47;;
61869;SDS011;47810;42.264;23.826;2024-01-30T18:49:50;5.10;;;3.35;;
61869;SDS011;47810;42.264;23.826;2024-01-30T18:52:16;16.13;;;6.90;;
61869;SDS011;47810;42.264;23.826;2024-01-30T18:54:42;11.55;;;6.35;;
61869;SDS011;47810;42.264;23.826;2024-01-30T18:57:09;2.42;;;2.33;;
61869;SDS011;47810;42.264;23.826;2024-01-30T18:59:35;7.40;;;6.28;;
61869;SDS011;47810;42.264;23.826;2024-01-30T19:02:01;8.93;;;7.00;;
61869;SDS011;47810;42.264;23.826;2024-01-30T19:04:27;6.25;;;5.25;;
61869;SDS011;47810;42.264;23.826;2024-01-30T19:06:53;3.95;;;3.00;;
61869;SDS011;47810;42.264;23.826;2024-01-30T19:09:20;2.53;;;2.33;;
61869;SDS011;47810;42.264;23.826;2024-01-30T19:11:47;6.47;;;3.78;;
61869;SDS011;47810;42.264;23.826;2024-01-30T19:14:15;4.80;;;3.42;;
61869;SDS011;47810;42.264;23.826;2024-01-30T19:16:40;6.07;;;5.43;;
61869;SDS011;47810;42.264;23.826;2024-01-30T19:19:06;2.38;;;2.17;;
61869;SDS011;47810;42.264;23.826;2024-01-30T19:21:33;1.83;;;1.73;;
61869;SDS011;47810;42.264;23.826;2024-01-30T19:24:01;3.92;;;3.63;;
61869;SDS011;47810;42.264;23.826;2024-01-30T19:26:29;3.90;;;3.53;;
61869;SDS011;47810;42.264;23.826;2024-01-30T19:28:56;14.02;;;4.60;;
61869;SDS011;47810;42.264;23.826;2024-01-30T19:31:23;3.97;;;3.67;;
61869;SDS011;47810;42.264;23.826;2024-01-30T19:33:49;2.63;;;2.03;;
61869;SDS011;47810;42.264;23.826;2024-01-30T19:36:16;5.10;;;3.75;;
61869;SDS011;47810;42.264;23.826;2024-01-30T19:38:42;4.20;;;3.30;;
61869;SDS011;47810;42.264;23.826;2024-01-30T19:41:11;6.35;;;3.85;;
61869;SDS011;47810;42.264;23.826;2024-01-30T19:43:39;6.97;;;6.18;;
61869;SDS011;47810;42.264;23.826;2024-01-30T19:46:06;5.90;;;3.67;;
61869;SDS011;47810;42.264;23.826;2024-01-30T19:48:35;6.35;;;5.72;;
61869;SDS011;47810;42.264;23.826;2024-01-30T19:51:00;7.50;;;5.85;;
61869;SDS011;47810;42.264;23.826;2024-01-30T19:53:27;7.00;;;3.38;;
61869;SDS011;47810;42.264;23.826;2024-01-30T19:55:53;5.32;;;4.30;;
61869;SDS011;47810;42.264;23.826;2024-01-30T19:58:19;3.10;;;2.90;;
61869;SDS011;47810;42.264;23.826;2024-01-30T20:00:45;1.75;;;1.65;;
61869;SDS011;47810;42.264;23.826;2024-01-30T20:03:11;2.30;;;2.20;;
61869;SDS011;47810;42.264;23.826;2024-01-30T20:05:38;7.45;;;4.20;;
61869;SDS011;47810;42.264;23.826;2024-01-30T20:08:03;3.92;;;3.15;;
61869;SDS011;47810;42.264;23.826;2024-01-30T20:10:30;1.77;;;1.67;;
61869;SDS011;47810;42.264;23.826;2024-01-30T20:12:55;4.13;;;3.08;;
61869;SDS011;47810;42.264;23.826;2024-01-30T20:15:23;1.67;;;1.58;;
61869;SDS011;47810;42.264;23.826;2024-01-30T20:17:51;2.13;;;2.03;;
61869;SDS011;47810;42.264;23.826;2024-01-30T20:20:16;1.40;;;1.30;;
61869;SDS011;47810;42.264;23.826;2024-01-30T20:22:45;3.50;;;2.10;;
61869;SDS011;47810;42.264;23.826;2024-01-30T20:25:12;3.65;;;3.35;;
61869;SDS011;47810;42.264;23.826;2024-01-30T20:27:40;2.05;;;1.83;;
61869;SDS011;47810;42.264;23.826;2024-01-30T20:30:07;1.92;;;1.77;;
61869;SDS011;47810;42.264;23.826;2024-01-30T20:35:04;4.38;;;3.53;;
61869;SDS011;47810;42.264;23.826;2024-01-30T20:37:36;4.10;;;3.58;;
61869;SDS011;47810;42.264;23.826;2024-01-30T20:40:04;6.65;;;4.88;;
61869;SDS011;47810;42.264;23.826;2024-01-30T20:42:31;1.73;;;1.63;;
61869;SDS011;47810;42.264;23.826;2024-01-30T20:44:58;1.95;;;1.85;;
61869;SDS011;47810;42.264;23.826;2024-01-30T20:47:24;2.58;;;2.38;;
61869;SDS011;47810;42.264;23.826;2024-01-30T20:49:50;4.28;;;3.85;;
61869;SDS011;47810;42.264;23.826;2024-01-30T20:52:16;4.18;;;3.80;;
61869;SDS011;47810;42.264;23.826;2024-01-30T20:54:44;3.47;;;3.28;;
61869;SDS011;47810;42.264;23.826;2024-01-30T20:57:12;2.05;;;1.90;;
61869;SDS011;47810;42.264;23.826;2024-01-30T20:59:39;3.58;;;2.75;;
61869;SDS011;47810;42.264;23.826;2024-01-30T21:02:05;4.57;;;4.18;;
61869;SDS011;47810;42.264;23.826;2024-01-30T21:04:31;5.07;;;4.28;;
61869;SDS011;47810;42.264;23.826;2024-01-30T21:06:57;9.70;;;6.40;;
61869;SDS011;47810;42.264;23.826;2024-01-30T21:09:22;4.50;;;4.00;;
61869;SDS011;47810;42.264;23.826;2024-01-30T21:11:48;7.75;;;4.70;;
61869;SDS011;47810;42.264;23.826;2024-01-30T21:14:15;11.63;;;4.38;;
61869;SDS011;47810;42.264;23.826;2024-01-30T21:16:42;4.55;;;2.72;;
61869;SDS011;47810;42.264;23.826;2024-01-30T21:19:08;7.40;;;4.45;;
61869;SDS011;47810;42.264;23.826;2024-01-30T21:21:37;3.83;;;3.38;;
61869;SDS011;47810;42.264;23.826;2024-01-30T21:24:03;6.50;;;5.65;;
61869;SDS011;47810;42.264;23.826;2024-01-30T21:26:29;4.85;;;4.50;;
61869;SDS011;47810;42.264;23.826;2024-01-30T21:28:55;4.70;;;4.03;;
61869;SDS011;47810;42.264;23.826;2024-01-30T21:31:21;8.95;;;3.67;;
61869;SDS011;47810;42.264;23.826;2024-01-30T21:33:47;5.60;;;3.83;;
61869;SDS011;47810;42.264;23.826;2024-01-30T21:36:14;3.78;;;3.22;;